Time;durP1;ratioP1;P1;durP2;ratioP2;P2;SDS_P1;SDS_P2;PMS_P1;PMS_P2;Temp;Humidity;BMP_temperature;BMP_pressure;BME280_temperature;BME280_humidity;BME280_pressure;Samples;Min_cycle;Max_cycle;Signal;HPM_P1;HPM_P2
2023/05/31 00:00:05;;;;;;;5.03;2.22;;;20.40;79.70;;;;;;5037003;28;20045;-63
2023/05/31 00:02:31;;;;;;;4.95;2.50;;;20.20;83.50;;;;;;5045207;28;20049;-65
2023/05/31 00:04:56;;;;;;;5.35;2.50;;;20.10;83.40;;;;;;5048247;28;20052;-62
2023/05/31 00:07:22;;;;;;;10.13;2.00;;;20.30;83.50;;;;;;5032467;28;20064;-71
2023/05/31 00:09:48;;;;;;;4.55;2.25;;;;;;;;;;5034511;28;20063;-65
2023/05/31 00:12:14;;;;;;;6.20;2.60;;;20.40;83.60;;;;;;5044855;28;20048;-61
2023/05/31 00:14:40;;;;;;;5.22;2.28;;;;;;;;;;5048618;28;20053;-65
2023/05/31 00:17:06;;;;;;;5.10;2.40;;;20.30;83.40;;;;;;5048662;28;20063;-61
2023/05/31 00:19:32;;;;;;;4.38;2.10;;;20.50;79.90;;;;;;5050603;28;20486;-68
2023/05/31 00:21:57;;;;;;;5.05;2.22;;;20.40;83.50;;;;;;5036667;28;20056;-69
2023/05/31 00:24:23;;;;;;;4.78;2.33;;;20.10;83.30;;;;;;5042796;28;20057;-71
2023/05/31 00:26:49;;;;;;;5.13;2.17;;;20.50;83.60;;;;;;5037935;28;20049;-66
2023/05/31 00:29:18;;;;;;;4.97;2.15;;;20.30;83.50;;;;;;5039344;28;20563;-67
2023/05/31 00:31:43;;;;;;;4.97;2.30;;;20.20;83.50;;;;;;5043431;28;20044;-68
2023/05/31 00:34:12;;;;;;;6.20;2.65;;;20.30;83.50;;;;;;5034382;28;20045;-62
2023/05/31 00:36:38;;;;;;;5.10;2.15;;;20.20;83.40;;;;;;5047239;28;20432;-60
2023/05/31 00:39:04;;;;;;;4.75;2.35;;;20.30;83.40;;;;;;5050698;28;20080;-61
2023/05/31 00:41:29;;;;;;;5.13;2.20;;;20.20;83.40;;;;;;5031687;28;20079;-62
2023/05/31 00:43:55;;;;;;;4.53;2.10;;;20.20;83.40;;;;;;5030847;28;20060;-62
2023/05/31 00:46:28;;;;;;;6.63;2.78;;;20.30;83.50;;;;;;5038883;28;20049;-65
2023/05/31 00:48:55;;;;;;;6.65;2.63;;;20.10;83.30;;;;;;5035348;28;20498;-65
2023/05/31 00:51:21;;;;;;;7.13;2.53;;;20.20;82.80;;;;;;5033927;28;20114;-65
2023/05/31 00:53:47;;;;;;;5.85;2.80;;;;;;;;;;5034745;28;20045;-63
2023/05/31 00:56:13;;;;;;;5.85;2.78;;;20.40;83.40;;;;;;5035519;28;20045;-63
2023/05/31 00:58:40;;;;;;;6.63;2.42;;;20.30;83.40;;;;;;5049244;28;20043;-60
2023/05/31 01:01:06;;;;;;;6.05;2.17;;;20.20;83.30;;;;;;5053415;28;20124;-61
2023/05/31 01:03:32;;;;;;;4.78;2.30;;;20.30;81.40;;;;;;5036810;28;20052;-64
2023/05/31 01:05:58;;;;;;;5.28;2.72;;;19.80;83.10;;;;;;5034105;28;20045;-61
2023/05/31 01:08:24;;;;;;;5.50;2.47;;;20.10;83.20;;;;;;5041487;28;20047;-62
2023/05/31 01:10:50;;;;;;;5.85;2.50;;;20.00;83.10;;;;;;5053895;28;20075;-62
2023/05/31 01:13:37;;;;;;;7.35;2.83;;;20.20;83.30;;;;;;5049701;28;20060;-61
2023/05/31 01:16:25;;;;;;;5.78;2.65;;;20.10;83.20;;;;;;5053116;28;20534;-61
2023/05/31 01:18:54;;;;;;;5.75;2.50;;;20.20;83.30;;;;;;5050040;28;20044;-64
2023/05/31 01:21:20;;;;;;;5.55;2.70;;;20.00;83.10;;;;;;5032804;28;20087;-67
2023/05/31 01:24:13;;;;;;;6.72;2.70;;;20.00;78.40;;;;;;5047739;28;20097;-62
2023/05/31 01:26:53;;;;;;;5.55;2.28;;;20.10;81.40;;;;;;5053915;28;20049;-62
2023/05/31 01:29:23;;;;;;;7.38;2.90;;;20.20;83.20;;;;;;5050851;28;20048;-61
2023/05/31 01:31:49;;;;;;;4.30;2.13;;;;;;;;;;5033866;28;20061;-64
2023/05/31 01:34:15;;;;;;;6.90;2.67;;;20.10;82.30;;;;;;5046928;28;20049;-62
2023/05/31 01:36:41;;;;;;;5.80;2.63;;;;;;;;;;5050172;28;20048;-64
2023/05/31 01:39:07;;;;;;;5.10;2.55;;;20.10;83.10;;;;;;5034038;28;20518;-61
2023/05/31 01:41:36;;;;;;;6.22;2.63;;;20.10;83.20;;;;;;5042022;28;20046;-63
2023/05/31 01:44:02;;;;;;;7.13;2.55;;;20.20;83.20;;;;;;5033858;28;20455;-64
2023/05/31 01:46:28;;;;;;;4.70;2.40;;;20.10;83.20;;;;;;5033133;28;20119;-73
2023/05/31 01:48:54;;;;;;;6.07;2.53;;;;;;;;;;5034261;28;20442;-62
2023/05/31 01:51:20;;;;;;;5.97;2.58;;;19.90;83.00;;;;;;5033513;28;20480;-60
2023/05/31 01:53:46;;;;;;;5.45;2.60;;;20.00;82.90;;;;;;5033396;28;20063;-65
2023/05/31 01:56:11;;;;;;;6.00;2.70;;;20.10;83.10;;;;;;5040935;28;20037;-61
2023/05/31 01:58:41;;;;;;;6.47;2.83;;;19.70;83.00;;;;;;5052163;28;20094;-63
2023/05/31 02:01:10;;;;;;;4.95;2.75;;;20.10;83.10;;;;;;5035221;28;20042;-60
2023/05/31 02:03:36;;;;;;;6.85;2.83;;;;;;;;;;5048444;28;20500;-66
2023/05/31 02:06:01;;;;;;;7.03;2.70;;;20.10;83.10;;;;;;5033599;28;20072;-61
2023/05/31 02:08:27;;;;;;;7.97;3.00;;;20.10;83.10;;;;;;5034266;28;20077;-63
2023/05/31 02:10:54;;;;;;;5.95;2.75;;;;;;;;;;5044218;28;20372;-65
2023/05/31 02:13:21;;;;;;;5.35;2.72;;;20.10;83.10;;;;;;5044172;28;20102;-71
2023/05/31 02:15:47;;;;;;;5.93;2.67;;;20.30;83.20;;;;;;5033827;28;20052;-69
2023/05/31 02:18:16;;;;;;;6.97;3.00;;;20.00;83.10;;;;;;5033914;28;20034;-72
2023/05/31 02:20:43;;;;;;;8.18;3.58;;;20.00;83.00;;;;;;5032823;28;20061;-71
2023/05/31 02:23:08;;;;;;;7.63;3.08;;;20.00;83.00;;;;;;5043882;28;20041;-70
2023/05/31 02:25:34;;;;;;;7.18;3.42;;;20.20;82.90;;;;;;5042263;28;20037;-70
2023/05/31 02:28:00;;;;;;;6.40;3.17;;;19.80;81.40;;;;;;5041812;28;20060;-71
2023/05/31 02:30:30;;;;;;;6.43;3.00;;;20.10;82.60;;;;;;5056013;28;20037;-63
2023/05/31 02:32:56;;;;;;;7.38;3.47;;;20.00;80.20;;;;;;5033361;28;20510;-68
2023/05/31 02:35:22;;;;;;;7.80;3.38;;;19.90;82.90;;;;;;5034527;28;20042;-65
2023/05/31 02:37:48;;;;;;;8.32;3.38;;;19.70;82.80;;;;;;5044571;28;20429;-60
2023/05/31 02:40:13;;;;;;;6.43;2.92;;;20.00;83.10;;;;;;5051176;28;20049;-61
2023/05/31 02:42:40;;;;;;;8.85;3.33;;;19.80;83.10;;;;;;5053119;28;20057;-73
2023/05/31 02:45:09;;;;;;;5.63;2.85;;;20.00;80.80;;;;;;5037477;28;20095;-63
2023/05/31 02:47:37;;;;;;;6.00;3.15;;;20.00;83.20;;;;;;5033143;28;20084;-64
2023/05/31 02:50:07;;;;;;;6.18;3.10;;;20.10;83.20;;;;;;5031576;28;20117;-63
2023/05/31 02:52:34;;;;;;;7.00;3.30;;;19.70;82.90;;;;;;5032966;28;20132;-61
2023/05/31 02:55:00;;;;;;;7.10;3.15;;;;;;;;;;5042675;28;20098;-70
2023/05/31 02:57:26;;;;;;;8.75;3.15;;;19.90;83.10;;;;;;5044948;28;20391;-62
2023/05/31 02:59:55;;;;;;;8.27;3.63;;;19.90;80.00;;;;;;5033619;28;20050;-65
2023/05/31 03:02:21;;;;;;;6.60;2.90;;;19.80;83.10;;;;;;5042727;28;20367;-67
2023/05/31 03:04:48;;;;;;;8.18;3.33;;;20.00;81.80;;;;;;5039148;28;20049;-71
2023/05/31 03:07:14;;;;;;;8.13;3.00;;;;;;;;;;5032453;28;20119;-62
2023/05/31 03:09:40;;;;;;;6.18;3.05;;;;;;;;;;5034349;28;20045;-62
2023/05/31 03:12:06;;;;;;;6.68;3.10;;;19.80;83.20;;;;;;5051168;28;20494;-62
2023/05/31 03:14:32;;;;;;;6.97;3.10;;;19.90;83.30;;;;;;5043585;28;20067;-61
2023/05/31 03:16:58;;;;;;;6.35;3.00;;;;;;;;;;5037024;28;20135;-62
2023/05/31 03:19:24;;;;;;;6.43;3.10;;;20.00;83.40;;;;;;5042438;28;20038;-61
2023/05/31 03:21:49;;;;;;;6.85;2.90;;;19.90;83.30;;;;;;5033296;28;20103;-61
2023/05/31 03:24:15;;;;;;;6.50;2.80;;;19.90;80.50;;;;;;5038552;28;20771;-62
2023/05/31 03:26:41;;;;;;;6.55;3.00;;;20.10;83.40;;;;;;5032508;28;20094;-82
2023/05/31 03:29:07;;;;;;;8.38;3.42;;;20.00;83.40;;;;;;5040499;28;20045;-78
2023/05/31 03:31:33;;;;;;;7.53;3.17;;;20.00;83.40;;;;;;5044534;28;20041;-77
2023/05/31 03:33:59;;;;;;;7.18;2.90;;;20.20;83.40;;;;;;5041244;28;20487;-79
2023/05/31 03:36:25;;;;;;;8.45;3.50;;;20.00;83.40;;;;;;5044389;28;20060;-71
2023/05/31 03:38:50;;;;;;;7.00;2.85;;;20.10;83.40;;;;;;5040027;28;20483;-75
2023/05/31 03:41:16;;;;;;;5.97;2.83;;;;;;;;;;5047423;28;20045;-69
2023/05/31 03:43:42;;;;;;;6.25;2.85;;;20.00;83.30;;;;;;5051660;28;20049;-61
2023/05/31 03:46:08;;;;;;;8.25;3.30;;;20.00;83.30;;;;;;5033305;28;20582;-79
2023/05/31 03:48:34;;;;;;;6.22;2.80;;;20.00;80.70;;;;;;5052282;28;20099;-85
2023/05/31 03:50:59;;;;;;;6.00;2.72;;;20.00;83.30;;;;;;5051221;28;20479;-74
2023/05/31 03:53:25;;;;;;;6.28;3.00;;;20.00;83.20;;;;;;5039635;28;20553;-61
2023/05/31 03:55:51;;;;;;;6.80;2.97;;;20.20;83.30;;;;;;5036485;28;20116;-61
2023/05/31 03:58:17;;;;;;;7.25;2.85;;;20.10;83.30;;;;;;5040522;28;20033;-61
2023/05/31 04:00:43;;;;;;;6.07;3.15;;;20.10;80.20;;;;;;5044235;28;20081;-75
2023/05/31 04:03:11;;;;;;;6.05;2.67;;;20.10;83.20;;;;;;5047907;28;20087;-62
2023/05/31 04:05:38;;;;;;;6.13;2.80;;;20.10;83.10;;;;;;5034822;28;20052;-62
2023/05/31 04:08:04;;;;;;;5.97;2.67;;;19.90;83.00;;;;;;5031417;28;20046;-62
2023/05/31 04:10:31;;;;;;;5.60;2.67;;;20.30;83.20;;;;;;5041753;28;20060;-75
2023/05/31 04:12:56;;;;;;;6.82;2.90;;;20.40;81.40;;;;;;5048981;28;20112;-81
2023/05/31 04:15:22;;;;;;;6.55;2.92;;;20.20;83.10;;;;;;5050175;28;20105;-69
2023/05/31 04:17:48;;;;;;;7.22;2.70;;;20.20;83.00;;;;;;5034149;28;20044;-63
2023/05/31 04:20:16;;;;;;;5.53;2.70;;;;;;;;;;5035918;28;20053;-69
2023/05/31 04:22:42;;;;;;;7.55;3.13;;;;;;;;;;5038164;28;20406;-72
2023/05/31 04:25:12;;;;;;;6.18;2.85;;;20.30;82.00;;;;;;5037169;28;20144;-61
2023/05/31 04:27:40;;;;;;;4.55;2.35;;;20.30;82.90;;;;;;5040586;28;20053;-62
2023/05/31 04:30:06;;;;;;;5.25;2.63;;;20.30;81.80;;;;;;5044042;28;20092;-65
2023/05/31 04:32:34;;;;;;;5.82;2.58;;;20.30;82.80;;;;;;5035743;28;20489;-61
2023/05/31 04:35:03;;;;;;;6.30;2.35;;;20.40;82.90;;;;;;5034784;28;20045;-76
2023/05/31 04:37:30;;;;;;;5.40;2.40;;;20.20;82.80;;;;;;5050587;28;20116;-61
2023/05/31 04:39:59;;;;;;;4.18;2.30;;;20.40;82.90;;;;;;5049428;28;20053;-62
2023/05/31 04:42:27;;;;;;;6.07;2.40;;;20.40;82.90;;;;;;5055723;28;20045;-62
2023/05/31 04:45:01;;;;;;;7.28;2.40;;;20.40;82.90;;;;;;5040821;28;20175;-62
2023/05/31 04:47:32;;;;;;;4.80;2.33;;;20.60;82.80;;;;;;5044241;28;20053;-86
2023/05/31 04:49:59;;;;;;;6.00;2.72;;;;;;;;;;5053246;28;20134;-66
2023/05/31 04:52:31;;;;;;;6.30;2.40;;;20.50;82.80;;;;;;5036449;28;20049;-77
2023/05/31 04:54:58;;;;;;;5.40;2.17;;;20.50;82.80;;;;;;5037853;28;20037;-62
2023/05/31 04:57:24;;;;;;;6.43;2.30;;;20.70;82.90;;;;;;5044391;28;20041;-64
2023/05/31 04:59:50;;;;;;;5.50;2.42;;;21.00;82.80;;;;;;5047414;28;20045;-61
2023/05/31 05:02:20;;;;;;;5.57;2.60;;;21.20;82.60;;;;;;5038329;28;20045;-79
2023/05/31 05:04:47;;;;;;;3.83;2.17;;;21.00;82.10;;;;;;5034925;28;20056;-81
2023/05/31 05:07:14;;;;;;;5.70;2.20;;;;;;;;;;5034637;28;20037;-73
2023/05/31 05:09:40;;;;;;;4.40;2.10;;;;;;;;;;5046205;28;20158;-71
2023/05/31 05:12:07;;;;;;;5.07;2.30;;;21.50;81.40;;;;;;5048508;28;20057;-76
2023/05/31 05:14:33;;;;;;;6.20;2.45;;;;;;;;;;5055057;28;20048;-78
2023/05/31 05:16:59;;;;;;;4.63;2.58;;;21.90;81.00;;;;;;5046778;28;21084;-76
2023/05/31 05:19:25;;;;;;;5.65;2.78;;;22.20;80.90;;;;;;5048950;28;20037;-63
2023/05/31 05:21:51;;;;;;;4.68;2.50;;;22.10;80.60;;;;;;5046285;28;20045;-74
2023/05/31 05:24:17;;;;;;;6.25;2.55;;;22.30;80.40;;;;;;5045924;28;20099;-67
2023/05/31 05:26:44;;;;;;;4.50;2.25;;;22.50;80.20;;;;;;5042201;28;20045;-81
2023/05/31 05:29:10;;;;;;;6.10;2.35;;;22.60;80.00;;;;;;5034787;28;20051;-83
2023/05/31 05:31:36;;;;;;;4.88;2.30;;;22.50;79.90;;;;;;5034338;28;20045;-81
2023/05/31 05:34:02;;;;;;;5.70;2.22;;;22.70;79.70;;;;;;5037170;28;20045;-82
2023/05/31 05:36:27;;;;;;;8.27;2.63;;;23.00;79.50;;;;;;5033743;28;20066;-79
2023/05/31 05:38:55;;;;;;;6.30;2.67;;;23.00;77.20;;;;;;5034454;28;20077;-81
2023/05/31 05:41:21;;;;;;;4.78;2.15;;;23.10;79.30;;;;;;5052922;28;20055;-82
2023/05/31 05:43:47;;;;;;;6.85;2.40;;;23.00;79.00;;;;;;5047191;28;20128;-82
2023/05/31 05:46:12;;;;;;;5.28;2.20;;;22.90;78.20;;;;;;5033701;28;20042;-67
2023/05/31 05:48:39;;;;;;;5.15;2.30;;;;;;;;;;5044804;28;20088;-72
2023/05/31 05:51:05;;;;;;;6.00;2.50;;;23.60;78.90;;;;;;5046378;28;20490;-83
2023/05/31 05:53:31;;;;;;;6.15;2.33;;;23.50;78.80;;;;;;5015736;28;20053;-77
2023/05/31 05:55:56;;;;;;;5.65;2.15;;;23.50;78.70;;;;;;5032517;28;20049;-84
2023/05/31 05:58:22;;;;;;;4.75;2.50;;;23.40;78.50;;;;;;5044402;28;20178;-84
2023/05/31 06:00:48;;;;;;;4.95;2.10;;;23.50;78.40;;;;;;5046327;28;20121;-63
2023/05/31 06:03:17;;;;;;;5.78;2.42;;;23.50;75.70;;;;;;5053884;28;20045;-64
2023/05/31 06:05:43;;;;;;;4.88;2.17;;;23.70;78.30;;;;;;5041664;28;20072;-79
2023/05/31 06:08:12;;;;;;;5.70;2.10;;;23.70;74.70;;;;;;5042773;28;20056;-65
2023/05/31 06:10:40;;;;;;;5.28;1.92;;;23.60;78.20;;;;;;5033356;28;20048;-72
2023/05/31 06:13:06;;;;;;;4.63;1.95;;;23.60;75.50;;;;;;5033443;28;20049;-82
2023/05/31 06:15:32;;;;;;;6.68;2.30;;;23.80;75.50;;;;;;5034193;28;20041;-86
2023/05/31 06:17:58;;;;;;;4.80;2.00;;;23.60;77.90;;;;;;5035093;28;20073;-87
2023/05/31 06:20:24;;;;;;;6.10;1.80;;;23.80;78.30;;;;;;5036852;28;20502;-82
2023/05/31 06:22:51;;;;;;;5.15;2.20;;;23.70;78.00;;;;;;5052615;28;20053;-74
2023/05/31 06:25:17;;;;;;;4.72;2.05;;;23.80;78.00;;;;;;5047966;28;20053;-77
2023/05/31 06:27:45;;;;;;;5.82;1.92;;;23.90;78.00;;;;;;5033465;28;20399;-85
2023/05/31 06:30:15;;;;;;;3.83;1.95;;;23.90;75.40;;;;;;5033575;28;20447;-65
2023/05/31 06:32:40;;;;;;;4.00;1.80;;;24.00;76.10;;;;;;5032570;28;20056;-62
2023/05/31 06:35:06;;;;;;;3.65;1.92;;;24.00;77.80;;;;;;5045849;28;20033;-61
2023/05/31 06:37:32;;;;;;;6.15;2.30;;;23.90;77.80;;;;;;5040606;28;20044;-84
2023/05/31 06:39:58;;;;;;;4.55;1.85;;;23.90;77.60;;;;;;5043899;28;20675;-79
2023/05/31 06:42:24;;;;;;;4.18;1.90;;;24.00;74.80;;;;;;5034579;28;20045;-81
2023/05/31 06:44:50;;;;;;;4.20;1.98;;;23.80;77.50;;;;;;5049381;28;20052;-86
2023/05/31 06:47:16;;;;;;;4.03;2.13;;;24.10;75.00;;;;;;5040921;28;20041;-85
2023/05/31 06:49:42;;;;;;;3.42;1.80;;;24.00;77.50;;;;;;5038120;28;20073;-88
2023/05/31 06:52:08;;;;;;;5.85;2.20;;;24.10;74.90;;;;;;5046166;28;20417;-76
2023/05/31 06:54:35;;;;;;;6.88;2.28;;;24.20;77.60;;;;;;5043089;28;20041;-80
2023/05/31 06:57:02;;;;;;;5.05;2.05;;;24.30;77.60;;;;;;5044200;28;20118;-84
2023/05/31 06:59:28;;;;;;;5.13;1.90;;;24.20;77.40;;;;;;5046677;28;20056;-67
2023/05/31 07:01:54;;;;;;;10.48;2.60;;;24.30;77.50;;;;;;5044918;28;20106;-82
2023/05/31 07:04:20;;;;;;;8.57;2.20;;;24.30;74.80;;;;;;5051126;28;20471;-87
2023/05/31 07:06:46;;;;;;;5.22;2.15;;;24.20;77.30;;;;;;5048117;28;20084;-78
2023/05/31 07:09:12;;;;;;;11.05;2.90;;;24.40;77.30;;;;;;5040931;28;20503;-64
2023/05/31 07:11:41;;;;;;;10.48;2.50;;;24.30;77.20;;;;;;5030857;28;20506;-69
2023/05/31 07:14:06;;;;;;;8.05;2.72;;;24.40;74.60;;;;;;5047764;28;20072;-71
2023/05/31 07:16:32;;;;;;;8.15;2.60;;;;;;;;;;5048651;28;20097;-70
2023/05/31 07:18:58;;;;;;;7.80;2.42;;;23.60;72.20;;;;;;5046871;28;20045;-74
2023/05/31 07:21:24;;;;;;;8.68;2.17;;;24.30;74.40;;;;;;5041449;28;20156;-78
2023/05/31 07:23:50;;;;;;;10.90;2.85;;;24.40;77.30;;;;;;5033866;28;20063;-61
2023/05/31 07:26:16;;;;;;;9.18;2.67;;;24.30;74.50;;;;;;5035704;28;20037;-69
2023/05/31 07:28:43;;;;;;;7.47;2.40;;;24.60;77.50;;;;;;5050766;28;20048;-78
2023/05/31 07:31:09;;;;;;;6.53;2.50;;;24.50;74.90;;;;;;5052214;28;20051;-62
2023/05/31 07:33:35;;;;;;;6.38;2.40;;;24.40;77.50;;;;;;5040045;28;20045;-62
2023/05/31 07:36:01;;;;;;;8.35;2.75;;;24.50;74.60;;;;;;5049822;28;20390;-61
2023/05/31 07:38:26;;;;;;;8.27;2.33;;;24.40;77.80;;;;;;5051806;28;20075;-64
2023/05/31 07:40:52;;;;;;;6.60;2.28;;;24.60;78.20;;;;;;5050588;28;20127;-65
2023/05/31 07:43:21;;;;;;;7.15;2.30;;;24.50;77.90;;;;;;5047422;28;20041;-64
2023/05/31 07:45:50;;;;;;;9.32;2.75;;;24.50;74.00;;;;;;5050709;28;20496;-82
2023/05/31 07:48:17;;;;;;;7.88;2.50;;;24.70;75.20;;;;;;5052271;28;20153;-65
2023/05/31 07:50:43;;;;;;;9.43;2.65;;;24.60;74.90;;;;;;5048057;28;20050;-62
2023/05/31 07:53:09;;;;;;;8.73;2.65;;;24.40;77.60;;;;;;5046732;28;20518;-63
2023/05/31 07:55:35;;;;;;;8.05;2.50;;;24.30;74.50;;;;;;5043968;28;20128;-61
2023/05/31 07:58:01;;;;;;;8.15;2.40;;;24.70;74.80;;;;;;5056492;28;20153;-65
2023/05/31 08:00:27;;;;;;;8.52;2.30;;;24.50;74.60;;;;;;5056392;28;20388;-64
2023/05/31 08:02:53;;;;;;;6.60;2.25;;;24.60;77.60;;;;;;5043381;28;20168;-61
2023/05/31 08:05:19;;;;;;;8.23;2.55;;;24.80;74.80;;;;;;5040936;28;20055;-64
2023/05/31 08:07:46;;;;;;;9.27;2.50;;;24.70;77.70;;;;;;5047884;28;20503;-62
2023/05/31 08:10:12;;;;;;;8.10;2.45;;;24.90;77.90;;;;;;5036467;28;20399;-63
2023/05/31 08:12:38;;;;;;;5.75;2.47;;;24.40;77.60;;;;;;5036166;28;20038;-61
2023/05/31 08:15:04;;;;;;;5.68;2.50;;;24.30;78.10;;;;;;5043303;28;20398;-62
2023/05/31 08:17:30;;;;;;;10.52;2.65;;;24.70;74.40;;;;;;5045767;28;20136;-68
2023/05/31 08:19:56;;;;;;;6.10;2.38;;;24.70;78.10;;;;;;5053533;28;20053;-61
2023/05/31 08:22:22;;;;;;;7.22;2.50;;;24.90;77.90;;;;;;5055633;28;20120;-68
2023/05/31 08:24:48;;;;;;;6.38;2.65;;;24.70;77.60;;;;;;5050289;28;20141;-67
2023/05/31 08:27:14;;;;;;;6.63;2.78;;;24.70;74.80;;;;;;5038097;28;20066;-67
2023/05/31 08:29:40;;;;;;;6.93;2.60;;;24.80;74.70;;;;;;5035650;28;20100;-69
2023/05/31 08:32:06;;;;;;;7.70;2.55;;;24.90;74.80;;;;;;5036012;28;20069;-65
2023/05/31 08:34:31;;;;;;;7.95;2.47;;;24.90;74.80;;;;;;5044881;28;20041;-65
2023/05/31 08:36:57;;;;;;;6.35;2.30;;;24.70;74.70;;;;;;5054033;28;20495;-61
2023/05/31 08:39:23;;;;;;;7.25;2.42;;;24.90;77.90;;;;;;5038859;28;20125;-61
2023/05/31 08:42:07;;;;;;;8.98;2.72;;;24.70;74.70;;;;;;5041399;28;20086;-61
2023/05/31 08:44:33;;;;;;;6.80;2.20;;;24.80;75.40;;;;;;5035832;28;20063;-63
2023/05/31 08:47:22;;;;;;;6.47;2.60;;;25.00;75.10;;;;;;5055547;28;20111;-65
2023/05/31 08:49:48;;;;;;;6.20;2.15;;;24.70;73.70;;;;;;5028869;28;20057;-64
2023/05/31 08:52:16;;;;;;;4.68;2.20;;;25.20;75.20;;;;;;5050530;28;20041;-61
2023/05/31 08:54:42;;;;;;;7.25;2.40;;;24.90;75.20;;;;;;5034358;28;20503;-73
2023/05/31 08:57:09;;;;;;;6.97;2.20;;;25.00;75.20;;;;;;5035526;28;20092;-80
2023/05/31 08:59:36;;;;;;;8.88;2.88;;;24.70;78.60;;;;;;5046058;28;20049;-69
2023/05/31 09:02:02;;;;;;;13.32;2.90;;;24.90;75.40;;;;;;5046883;28;20109;-70
2023/05/31 09:04:28;;;;;;;10.18;2.67;;;25.10;75.60;;;;;;5036621;28;20052;-83
2023/05/31 09:06:54;;;;;;;11.05;2.70;;;24.90;78.70;;;;;;5044617;28;20422;-68
2023/05/31 09:09:20;;;;;;;9.38;2.92;;;24.90;75.60;;;;;;5053900;28;20044;-70
2023/05/31 09:11:46;;;;;;;12.23;3.08;;;24.90;79.20;;;;;;5030649;28;20049;-76
2023/05/31 09:14:12;;;;;;;8.18;2.70;;;24.90;75.70;;;;;;5054136;28;20395;-71
2023/05/31 09:16:37;;;;;;;9.65;2.83;;;24.90;75.70;;;;;;5048801;28;20033;-64
2023/05/31 09:19:04;;;;;;;10.73;3.33;;;25.10;75.80;;;;;;5042178;28;20053;-73
2023/05/31 09:21:38;;;;;;;8.68;3.13;;;24.80;75.90;;;;;;5034980;28;20451;-61
2023/05/31 09:24:04;;;;;;;9.38;3.13;;;24.80;76.20;;;;;;5034439;28;20103;-71
2023/05/31 09:26:32;;;;;;;9.60;3.33;;;24.90;75.40;;;;;;5037604;28;20084;-64
2023/05/31 09:28:58;;;;;;;8.68;3.42;;;24.90;75.70;;;;;;5052330;28;20060;-72
2023/05/31 09:31:24;;;;;;;9.95;3.00;;;24.90;75.80;;;;;;5054053;28;20033;-80
2023/05/31 09:33:51;;;;;;;8.73;3.15;;;24.80;75.80;;;;;;5040478;28;20049;-61
2023/05/31 09:36:31;;;;;;;7.88;3.08;;;24.50;75.70;;;;;;5034684;28;20080;-61
2023/05/31 09:39:04;;;;;;;8.68;2.88;;;24.70;78.90;;;;;;5052884;28;20047;-65
2023/05/31 09:41:30;;;;;;;;;;;24.60;74.70;;;;;;5047215;28;20049;-62
2023/05/31 09:43:55;;;;;;;7.90;2.90;;;24.90;79.80;;;;;;5044733;28;19921;-62
2023/05/31 09:46:22;;;;;;;7.38;2.85;;;24.80;77.80;;;;;;5037988;28;20048;-62
2023/05/31 09:49:06;;;;;;;17.25;3.65;;;24.60;79.20;;;;;;5045001;28;20041;-76
2023/05/31 09:51:32;;;;;;;14.27;3.58;;;24.70;76.80;;;;;;5034675;28;20051;-62
2023/05/31 09:54:06;;;;;;;17.02;3.72;;;24.90;79.80;;;;;;5037291;28;20045;-63
2023/05/31 09:56:35;;;;;;;17.08;4.05;;;24.80;76.50;;;;;;5054329;28;20110;-60
2023/05/31 09:59:02;;;;;;;8.38;3.22;;;24.60;76.50;;;;;;5052627;28;20395;-62
2023/05/31 10:01:28;;;;;;;11.73;3.47;;;24.60;76.40;;;;;;5053033;28;20077;-64
2023/05/31 10:03:54;;;;;;;9.63;3.53;;;24.70;79.60;;;;;;5054084;28;20080;-64
2023/05/31 10:06:21;;;;;;;7.20;3.15;;;24.80;79.50;;;;;;5039148;28;20037;-76
2023/05/31 10:08:47;;;;;;;10.13;3.88;;;24.60;76.50;;;;;;5041320;28;20049;-73
2023/05/31 10:11:19;;;;;;;10.73;3.75;;;24.70;76.60;;;;;;5043144;28;20047;-75
2023/05/31 10:13:46;;;;;;;7.50;3.00;;;24.70;80.40;;;;;;5052871;28;20056;-69
2023/05/31 10:16:11;;;;;;;7.55;3.60;;;24.60;79.90;;;;;;5007655;28;20053;-71
2023/05/31 10:18:38;;;;;;;11.57;3.95;;;24.60;80.00;;;;;;5033923;28;20045;-74
2023/05/31 10:21:10;;;;;;;7.75;3.50;;;24.40;77.00;;;;;;5043384;28;20053;-69
2023/05/31 10:23:43;;;;;;;8.82;2.92;;;24.60;79.80;;;;;;5047642;28;20085;-69
2023/05/31 10:26:13;;;;;;;9.45;3.42;;;24.70;75.90;;;;;;5041387;28;20479;-64
2023/05/31 10:28:56;;;;;;;7.93;3.30;;;24.50;80.30;;;;;;5037259;28;20049;-71
2023/05/31 10:31:25;;;;;;;6.90;3.88;;;24.50;80.10;;;;;;5041567;28;20447;-77
2023/05/31 10:33:53;;;;;;;14.13;4.03;;;23.90;79.50;;;;;;5045909;28;20491;-77
2023/05/31 10:36:19;;;;;;;8.35;3.83;;;24.60;80.50;;;;;;5048729;28;20049;-59
2023/05/31 10:39:11;;;;;;;12.40;3.88;;;24.30;77.60;;;;;;5046958;28;20106;-62
2023/05/31 10:41:43;;;;;;;11.48;4.05;;;24.40;77.80;;;;;;5038278;28;20079;-65
2023/05/31 10:44:12;;;;;;;23.00;4.15;;;24.30;77.60;;;;;;5044963;28;20461;-62
2023/05/31 10:46:38;;;;;;;12.30;3.97;;;24.40;77.40;;;;;;5048681;28;20056;-60
2023/05/31 10:49:04;;;;;;;11.50;4.13;;;24.80;80.30;;;;;;5030544;28;20098;-83
2023/05/31 10:51:40;;;;;;;10.07;3.47;;;24.60;80.90;;;;;;5044150;28;20045;-83
2023/05/31 10:54:06;;;;;;;10.90;3.20;;;24.50;80.80;;;;;;5033457;28;20056;-67
2023/05/31 10:56:32;;;;;;;10.45;3.80;;;24.30;77.70;;;;;;5032976;28;20128;-80
2023/05/31 10:58:57;;;;;;;8.88;3.75;;;24.60;77.40;;;;;;5033006;28;20079;-69
2023/05/31 11:01:24;;;;;;;10.38;3.33;;;25.80;78.10;;;;;;5046490;28;20033;-60
2023/05/31 11:03:50;;;;;;;10.98;3.50;;;;;;;;;;5013454;28;20053;-73
2023/05/31 11:06:17;;;;;;;7.65;2.92;;;24.60;80.50;;;;;;5033203;28;20116;-66
2023/05/31 11:09:05;;;;;;;8.10;3.05;;;24.60;80.90;;;;;;5046702;28;20116;-60
2023/05/31 11:11:30;;;;;;;9.05;3.22;;;24.70;78.30;;;;;;5050473;28;20053;-60
2023/05/31 11:14:04;;;;;;;6.97;3.03;;;24.60;80.60;;;;;;5043857;28;20514;-60
2023/05/31 11:16:34;;;;;;;8.20;3.33;;;24.50;76.10;;;;;;5033355;28;20049;-65
2023/05/31 11:19:07;;;;;;;6.85;2.63;;;24.60;77.40;;;;;;5032702;28;20098;-85
2023/05/31 11:21:52;;;;;;;10.93;3.75;;;24.60;80.50;;;;;;5032534;28;20053;-60
2023/05/31 11:24:36;;;;;;;8.30;3.33;;;24.80;76.90;;;;;;5048639;28;20088;-60
2023/05/31 11:27:02;;;;;;;10.27;3.15;;;24.50;81.00;;;;;;5043434;28;20056;-71
2023/05/31 11:29:52;;;;;;;6.35;2.58;;;24.50;77.50;;;;;;5052315;28;20044;-61
2023/05/31 11:32:34;;;;;;;5.75;2.80;;;24.60;76.80;;;;;;5043071;28;20044;-67
2023/05/31 11:35:02;;;;;;;6.30;2.70;;;24.80;81.00;;;;;;5044911;28;20064;-71
2023/05/31 11:37:30;;;;;;;7.80;3.05;;;24.50;77.80;;;;;;5035824;28;20056;-62
2023/05/31 11:39:59;;;;;;;10.23;2.70;;;24.70;77.80;;;;;;5032555;28;20135;-70
2023/05/31 11:42:25;;;;;;;12.57;3.30;;;24.60;77.80;;;;;;5036268;28;20379;-63
2023/05/31 11:44:51;;;;;;;13.57;3.10;;;24.80;77.70;;;;;;5050366;28;20486;-74
2023/05/31 11:47:18;;;;;;;11.75;3.17;;;24.60;77.60;;;;;;5050173;28;20047;-74
2023/05/31 11:49:44;;;;;;;15.02;3.70;;;24.70;77.90;;;;;;5039319;28;20398;-63
2023/05/31 11:52:14;;;;;;;17.27;3.05;;;24.80;77.80;;;;;;5037237;28;20056;-62
2023/05/31 11:54:43;;;;;;;14.10;3.63;;;24.50;76.90;;;;;;5050646;28;20049;-63
2023/05/31 11:57:09;;;;;;;10.25;3.10;;;24.80;77.90;;;;;;5051065;28;20064;-64
2023/05/31 11:59:35;;;;;;;8.57;3.00;;;24.80;77.60;;;;;;5052504;28;20440;-60
2023/05/31 12:02:02;;;;;;;11.80;3.55;;;24.80;80.60;;;;;;5046761;28;20037;-60
2023/05/31 12:04:41;;;;;;;9.13;3.10;;;24.50;77.60;;;;;;5052275;28;20433;-66
2023/05/31 12:07:11;;;;;;;9.35;3.40;;;24.60;78.10;;;;;;5036274;28;20049;-67
2023/05/31 12:09:37;;;;;;;8.10;2.95;;;24.90;77.90;;;;;;5041636;28;20079;-68
2023/05/31 12:12:05;;;;;;;9.80;3.15;;;24.60;77.30;;;;;;5050487;28;20069;-63
2023/05/31 12:14:31;;;;;;;8.80;3.45;;;24.80;77.50;;;;;;5034786;28;20056;-77
2023/05/31 12:17:04;;;;;;;9.10;3.40;;;24.60;77.40;;;;;;5032055;28;20503;-73
2023/05/31 12:19:30;;;;;;;8.70;3.58;;;24.90;76.20;;;;;;5032412;28;20057;-64
2023/05/31 12:21:56;;;;;;;13.25;4.15;;;24.70;77.40;;;;;;5036111;28;20071;-64
2023/05/31 12:24:22;;;;;;;9.27;3.35;;;24.50;77.10;;;;;;5037690;28;20057;-63
2023/05/31 12:26:51;;;;;;;9.02;3.30;;;24.70;77.10;;;;;;5032376;28;20053;-62
2023/05/31 12:29:19;;;;;;;9.73;2.70;;;24.50;80.40;;;;;;5032141;28;20045;-60
2023/05/31 12:31:45;;;;;;;8.38;3.30;;;24.50;79.90;;;;;;5030345;28;20041;-62
2023/05/31 12:34:12;;;;;;;11.35;3.22;;;24.60;77.10;;;;;;5040768;28;20033;-64
2023/05/31 12:36:42;;;;;;;8.35;3.15;;;24.60;80.10;;;;;;5052053;28;20045;-69
2023/05/31 12:39:28;;;;;;;5.15;2.53;;;24.60;75.80;;;;;;5051664;28;20411;-73
2023/05/31 12:41:54;;;;;;;7.43;3.15;;;24.60;77.60;;;;;;5030564;28;20053;-67
2023/05/31 12:44:21;;;;;;;6.45;2.80;;;24.60;80.30;;;;;;5017866;28;20577;-74
2023/05/31 12:46:47;;;;;;;7.90;3.17;;;24.60;77.30;;;;;;5034828;28;20171;-62
2023/05/31 12:49:23;;;;;;;6.18;2.90;;;24.60;77.20;;;;;;5035621;28;20049;-62
2023/05/31 12:52:03;;;;;;;7.18;2.80;;;24.70;76.10;;;;;;5035692;28;20037;-66
2023/05/31 12:54:30;;;;;;;8.52;2.80;;;24.50;76.30;;;;;;5035292;28;20119;-63